createdAt,value
2018-08-19T00:00:53.813Z,97885.59
2018-08-19T00:03:22.823Z,97885.15
2018-08-19T00:05:51.478Z,97880.85
2018-08-19T00:08:20.075Z,97884.72
2018-08-19T00:11:00.636Z,97882.55
2018-08-19T00:13:29.248Z,97873.88
2018-08-19T00:15:58.009Z,97873.03
2018-08-19T00:18:26.587Z,97877.31
2018-08-19T00:20:55.282Z,97877.72
2018-08-19T00:23:23.955Z,97872.98
2018-08-19T00:25:52.686Z,97874.70
2018-08-19T00:28:21.747Z,97871.70
2018-08-19T00:30:50.380Z,97875.99
2018-08-19T00:33:19.125Z,97875.56
2018-08-19T00:35:47.758Z,97875.97
2018-08-19T00:38:16.822Z,97872.08
2018-08-19T00:40:45.682Z,97873.34
2018-08-19T00:43:14.258Z,97873.34
2018-08-19T00:45:42.939Z,97872.46
2018-08-19T00:48:11.806Z,97876.33
2018-08-19T00:50:41.008Z,97874.59
2018-08-19T00:53:10.718Z,97873.72
2018-08-19T00:55:44.623Z,97875.89
2018-08-19T00:58:14.891Z,97871.62
2018-08-19T01:00:43.555Z,97868.63
2018-08-19T01:03:12.475Z,97867.80
2018-08-19T01:05:41.077Z,97869.91
2018-08-19T01:08:11.393Z,97869.94
2018-08-19T01:10:40.273Z,97873.80
2018-08-19T01:13:09.342Z,97866.49
2018-08-19T01:15:38.092Z,97869.06
2018-08-19T01:18:06.719Z,97873.36
2018-08-19T01:20:35.390Z,97874.66
2018-08-19T01:23:04.049Z,97876.38
2018-08-19T01:25:32.677Z,97868.59
2018-08-19T01:28:01.363Z,97869.91
2018-08-19T01:30:29.983Z,97876.80
2018-08-19T01:32:58.626Z,97876.34
2018-08-19T01:35:32.523Z,97881.47
2018-08-19T01:38:01.510Z,97873.75
2018-08-19T01:40:36.462Z,97879.34
2018-08-19T01:43:06.491Z,97876.30
2018-08-19T01:45:35.558Z,97872.00
2018-08-19T01:48:04.119Z,97872.84
2018-08-19T01:50:32.713Z,97873.26
2018-08-19T01:53:01.328Z,97874.14
2018-08-19T01:55:31.252Z,97871.94
2018-08-19T01:58:00.000Z,97874.52
2018-08-19T02:00:28.631Z,97874.93
2018-08-19T02:03:00.731Z,97872.35
2018-08-19T02:05:29.362Z,97871.51
2018-08-19T02:07:59.898Z,97874.93
2018-08-19T02:10:29.595Z,97871.94
2018-08-19T02:12:58.782Z,97873.64
2018-08-19T02:15:28.582Z,97872.80
2018-08-19T02:18:05.328Z,97871.06
2018-08-19T02:20:37.315Z,97862.50
2018-08-19T02:23:07.570Z,97871.06
2018-08-19T02:25:46.372Z,97866.33
2018-08-19T02:28:19.648Z,97863.31
2018-08-19T02:30:53.608Z,97867.20
2018-08-19T02:33:23.498Z,97863.31
2018-08-19T02:35:57.225Z,97859.89
2018-08-19T02:38:26.144Z,97863.75
2018-08-19T02:40:55.066Z,97862.00
2018-08-19T02:43:24.157Z,97859.02
2018-08-19T02:45:52.848Z,97860.71
2018-08-19T02:48:35.533Z,97859.42
2018-08-19T02:51:04.206Z,97857.30
2018-08-19T02:53:32.736Z,97865.02
2018-08-19T02:56:01.433Z,97856.41
2018-08-19T02:58:30.127Z,97857.70
2018-08-19T03:00:58.733Z,97851.70
2018-08-19T03:03:27.376Z,97854.72
2018-08-19T03:05:59.207Z,97858.55
2018-08-19T03:08:28.271Z,97855.53
2018-08-19T03:10:56.988Z,97858.08
2018-08-19T03:13:25.563Z,97861.13
2018-08-19T03:15:55.884Z,97858.08
2018-08-19T03:18:24.507Z,97862.39
2018-08-19T03:20:53.204Z,97861.95
2018-08-19T03:23:22.158Z,97862.39
2018-08-19T03:25:50.840Z,97863.67
2018-08-19T03:28:19.450Z,97863.67
2018-08-19T03:30:53.213Z,97866.22
2018-08-19T03:33:21.981Z,97866.25
2018-08-19T03:35:50.811Z,97867.95
2018-08-19T03:38:19.312Z,97868.36
2018-08-19T03:40:47.855Z,97863.64
2018-08-19T03:43:16.347Z,97866.22
2018-08-19T03:45:44.889Z,97867.51
2018-08-19T03:48:13.381Z,97865.78
2018-08-19T03:50:41.911Z,97863.17
2018-08-19T03:53:10.552Z,97859.31
2018-08-19T03:55:39.269Z,97861.89
2018-08-19T03:58:09.133Z,97856.73
2018-08-19T04:00:42.807Z,97858.47
2018-08-19T04:03:18.662Z,97861.05
2018-08-19T04:05:56.772Z,97865.73
2018-08-19T04:08:58.901Z,97870.47
2018-08-19T04:11:27.691Z,97872.60
2018-08-19T04:13:56.285Z,97875.59
2018-08-19T04:16:24.868Z,97875.16
2018-08-19T04:19:01.364Z,97881.59
2018-08-19T04:21:29.896Z,97887.14
2018-08-19T04:23:58.425Z,97891.86
2018-08-19T04:26:26.939Z,97888.00
2018-08-19T04:28:55.510Z,97884.13
2018-08-19T04:31:25.210Z,97888.84
2018-08-19T04:33:54.954Z,97888.00
2018-08-19T04:36:24.918Z,97891.88
2018-08-19T04:38:53.473Z,97886.27
2018-08-19T04:41:22.049Z,97891.41
2018-08-19T04:43:50.671Z,97896.13
2018-08-19T04:46:19.196Z,97886.23
2018-08-19T04:48:48.668Z,97893.14
2018-08-19T04:51:17.238Z,97886.67
2018-08-19T04:53:45.800Z,97896.53
2018-08-19T04:56:14.326Z,97903.84
2018-08-19T04:58:42.825Z,97896.56
2018-08-19T05:01:12.539Z,97897.41
2018-08-19T05:03:43.071Z,97897.82
2018-08-19T05:06:11.604Z,97902.97
2018-08-19T05:08:40.123Z,97906.42
2018-08-19T05:11:08.680Z,97907.27
2018-08-19T05:13:37.327Z,97902.12
2018-08-19T05:16:06.127Z,97905.98
2018-08-19T05:18:34.690Z,97905.98
2018-08-19T05:21:08.303Z,97908.56
2018-08-19T05:23:36.859Z,97905.98
2018-08-19T05:26:05.574Z,97907.68
2018-08-19T05:28:34.177Z,97910.23
2018-08-19T05:31:02.730Z,97913.23
2018-08-19T05:33:31.270Z,97914.53
2018-08-19T05:35:59.789Z,97916.66
2018-08-19T05:38:31.365Z,97916.64
2018-08-19T05:41:01.203Z,97915.38
2018-08-19T05:43:30.594Z,97916.19
2018-08-19T05:46:00.202Z,97921.37
2018-08-19T05:48:28.736Z,97921.37
2018-08-19T05:50:57.683Z,97923.09
2018-08-19T05:53:26.197Z,97921.34
2018-08-19T05:55:54.720Z,97926.52
2018-08-19T05:58:23.240Z,97923.92
2018-08-19T06:00:54.340Z,97923.92
2018-08-19T06:03:23.051Z,97922.19
2018-08-19T06:05:51.600Z,97922.22
2018-08-19T06:08:20.242Z,97921.78
2018-08-19T06:10:48.831Z,97919.18
2018-08-19T06:13:17.418Z,97921.28
2018-08-19T06:15:46.044Z,97922.19
2018-08-19T06:18:14.508Z,97923.48
2018-08-19T06:20:43.026Z,97927.77
2018-08-19T06:23:11.541Z,97927.81
2018-08-19T06:25:40.093Z,97928.72
2018-08-19T06:28:08.674Z,97928.74
2018-08-19T06:30:37.241Z,97930.91
2018-08-19T06:33:05.795Z,97933.14
2018-08-19T06:35:34.322Z,97932.20
2018-08-19T06:38:02.951Z,97932.55
2018-08-19T06:40:31.448Z,97937.17
2018-08-19T06:43:00.126Z,97933.56
2018-08-19T06:45:29.408Z,97935.95
2018-08-19T06:47:58.019Z,97935.83
2018-08-19T06:50:31.484Z,97935.73
2018-08-19T06:53:00.005Z,97935.23
2018-08-19T06:55:28.856Z,97935.06
2018-08-19T06:57:58.395Z,97934.13
2018-08-19T07:00:30.918Z,97930.67
2018-08-19T07:03:00.667Z,97935.25
2018-08-19T07:05:29.790Z,97935.05
2018-08-19T07:07:58.295Z,97934.64
2018-08-19T07:10:38.009Z,97941.11
2018-08-19T07:13:11.039Z,97942.39
2018-08-19T07:15:40.799Z,97943.14
2018-08-19T07:18:11.161Z,97941.52
2018-08-19T07:20:40.793Z,97937.38
2018-08-19T07:23:10.991Z,97936.26
2018-08-19T07:25:41.421Z,97934.97
2018-08-19T07:28:10.927Z,97936.80
2018-08-19T07:30:39.759Z,97935.41
2018-08-19T07:33:08.603Z,97940.66
2018-08-19T07:35:37.143Z,97944.20
2018-08-19T07:38:05.675Z,97939.74
2018-08-19T07:40:34.198Z,97942.82
2018-08-19T07:43:02.846Z,97946.71
2018-08-19T07:45:31.443Z,97942.89
2018-08-19T07:47:59.973Z,97945.52
2018-08-19T07:50:28.503Z,97946.03
2018-08-19T07:52:57.042Z,97949.03
2018-08-19T07:55:25.647Z,97946.44
2018-08-19T07:57:54.149Z,97941.22
2018-08-19T08:00:39.663Z,97943.02
2018-08-19T08:03:08.322Z,97939.69
2018-08-19T08:05:42.135Z,97940.97
2018-08-19T08:08:10.673Z,97941.07
2018-08-19T08:10:39.842Z,97938.56
2018-08-19T08:13:10.400Z,97941.63
2018-08-19T08:15:44.113Z,97936.92
2018-08-19T08:18:13.006Z,97944.23
2018-08-19T08:20:41.467Z,97939.12
2018-08-19T08:23:20.382Z,97940.88
2018-08-19T08:25:49.315Z,97942.66
2018-08-19T08:28:18.007Z,97942.76
2018-08-19T08:30:46.637Z,97941.94
2018-08-19T08:33:15.103Z,97941.97
2018-08-19T08:35:48.971Z,97941.18
2018-08-19T08:38:17.694Z,97938.26
2018-08-19T08:40:46.293Z,97935.70
2018-08-19T08:43:14.698Z,97935.77
2018-08-19T08:45:44.065Z,97935.36
2018-08-19T08:48:12.731Z,97936.27
2018-08-19T08:50:41.325Z,97931.11
2018-08-19T08:53:09.834Z,97924.30
2018-08-19T08:55:38.297Z,97926.02
2018-08-19T08:58:07.087Z,97920.05
2018-08-19T09:00:35.646Z,97914.90
2018-08-19T09:03:04.157Z,97910.66
2018-08-19T09:05:32.611Z,97905.94
2018-08-19T09:08:01.194Z,97908.57
2018-08-19T09:10:29.672Z,97902.60
2018-08-19T09:12:58.156Z,97895.72
2018-08-19T09:15:26.643Z,97897.03
2018-08-19T09:17:55.116Z,97893.20
2018-08-19T09:20:23.634Z,97891.50
2018-08-19T09:22:52.131Z,97891.94
2018-08-19T09:25:20.622Z,97884.72
2018-08-19T09:27:49.085Z,97886.84
2018-08-19T09:30:50.686Z,97884.73
2018-08-19T09:33:19.166Z,97877.45
2018-08-19T09:35:47.676Z,97881.75
2018-08-19T09:38:19.545Z,97876.16
2018-08-19T09:40:48.204Z,97879.12
2018-08-19T09:43:16.958Z,97875.72
2018-08-19T09:45:45.857Z,97876.19
2018-08-19T09:48:14.944Z,97874.07
2018-08-19T09:50:43.947Z,97870.70
2018-08-19T09:53:12.568Z,97871.14
2018-08-19T09:55:52.375Z,97861.73
2018-08-19T09:58:22.079Z,97859.16
2018-08-19T10:00:55.930Z,97860.47
2018-08-19T10:03:24.447Z,97859.21
2018-08-19T10:05:53.019Z,97857.48
2018-08-19T10:08:23.682Z,97855.34
2018-08-19T10:10:52.625Z,97857.92
2018-08-19T10:13:21.229Z,97858.36
2018-08-19T10:15:49.723Z,97854.08
2018-08-19T10:18:18.198Z,97850.63
2018-08-19T10:20:46.691Z,97849.77
2018-08-19T10:23:15.176Z,97844.63
2018-08-19T10:25:43.645Z,97845.89
2018-08-19T10:28:12.107Z,97843.31
2018-08-19T10:30:50.555Z,97843.73
2018-08-19T10:33:21.355Z,97844.55
2018-08-19T10:35:50.260Z,97820.52
2018-08-19T10:38:18.790Z,97824.41
2018-08-19T10:41:07.602Z,97824.80
2018-08-19T10:43:36.127Z,97833.81
2018-08-19T10:46:04.683Z,97822.67
2018-08-19T10:48:33.208Z,97822.70
2018-08-19T10:51:03.118Z,97818.02
2018-08-19T10:53:31.658Z,97824.89
2018-08-19T10:56:01.975Z,97818.88
2018-08-19T10:58:30.637Z,97815.46
2018-08-19T11:00:59.098Z,97821.05
2018-08-19T11:03:27.612Z,97818.50
2018-08-19T11:05:56.791Z,97815.09
2018-08-19T11:08:25.297Z,97809.11
2018-08-19T11:10:54.382Z,97810.81
2018-08-19T11:13:24.320Z,97807.33
2018-08-19T11:15:54.245Z,97808.67
2018-08-19T11:18:37.533Z,97807.02
2018-08-19T11:21:11.253Z,97806.20
2018-08-19T11:23:42.174Z,97796.34
2018-08-19T11:26:11.603Z,97796.39
2018-08-19T11:28:55.813Z,97794.24
2018-08-19T11:31:29.642Z,97784.39
2018-08-19T11:34:00.458Z,97780.14
2018-08-19T11:36:35.284Z,97774.13
2018-08-19T11:39:06.070Z,97770.28
2018-08-19T11:41:34.829Z,97772.47
2018-08-19T11:44:06.810Z,97771.62
2018-08-19T11:46:35.396Z,97768.64
2018-08-19T11:49:11.329Z,97767.37
2018-08-19T11:51:46.239Z,97767.78
2018-08-19T11:54:15.807Z,97764.39
2018-08-19T11:56:59.602Z,97762.22
2018-08-19T11:59:36.310Z,97768.23
2018-08-19T12:02:06.425Z,97771.67
2018-08-19T12:04:34.887Z,97766.91
2018-08-19T12:07:03.359Z,97761.32
2018-08-19T12:09:31.833Z,97764.36
2018-08-19T12:12:00.319Z,97758.75
2018-08-19T12:14:28.924Z,97759.19
2018-08-19T12:16:58.731Z,97757.38
2018-08-19T12:19:28.563Z,97754.80
2018-08-19T12:22:00.012Z,97755.69
2018-08-19T12:24:34.628Z,97754.41
2018-08-19T12:27:04.201Z,97752.28
2018-08-19T12:29:33.730Z,97749.72
2018-08-19T12:32:12.874Z,97747.61
2018-08-19T12:34:50.366Z,97741.58
2018-08-19T12:37:20.041Z,97740.31
2018-08-19T12:39:48.864Z,97735.13
2018-08-19T12:42:17.351Z,97736.42
2018-08-19T12:44:53.403Z,97729.98
2018-08-19T12:47:24.278Z,97729.96
2018-08-19T12:50:03.755Z,97729.94
2018-08-19T12:52:33.702Z,97724.38
2018-08-19T12:55:05.251Z,97721.81
2018-08-19T12:57:34.474Z,97719.23
2018-08-19T13:00:10.491Z,97716.21
2018-08-19T13:02:43.213Z,97706.35
2018-08-19T13:05:12.192Z,97707.17
2018-08-19T13:07:40.654Z,97705.86
2018-08-19T13:10:09.424Z,97709.73
2018-08-19T13:12:43.139Z,97711.86
2018-08-19T13:15:11.647Z,97701.59
2018-08-19T13:17:40.111Z,97698.62
2018-08-19T13:20:09.099Z,97692.60
2018-08-19T13:22:47.820Z,97687.88
2018-08-19T13:25:16.518Z,97686.59
2018-08-19T13:27:45.056Z,97690.45
2018-08-19T13:30:13.562Z,97690.91
2018-08-19T13:32:42.094Z,97679.66
2018-08-19T13:35:10.600Z,97686.57
2018-08-19T13:37:39.075Z,97690.89
2018-08-19T13:40:09.254Z,97680.98
2018-08-19T13:42:37.730Z,97683.56
2018-08-19T13:45:11.544Z,97673.25
2018-08-19T13:47:41.019Z,97672.40
2018-08-19T13:50:09.598Z,97671.97
2018-08-19T13:52:38.389Z,97667.70
2018-08-19T13:55:09.705Z,97668.12
2018-08-19T13:57:38.169Z,97665.56
2018-08-19T14:00:10.423Z,97661.71
2018-08-19T14:02:38.890Z,97661.70
2018-08-19T14:05:07.399Z,97653.55
2018-08-19T14:07:35.854Z,97654.41
2018-08-19T14:10:05.314Z,97653.56
2018-08-19T14:12:33.811Z,97657.45
2018-08-19T14:15:02.286Z,97650.12
2018-08-19T14:17:30.750Z,97652.72
2018-08-19T14:19:59.223Z,97647.16
2018-08-19T14:22:27.844Z,97644.58
2018-08-19T14:24:56.320Z,97652.34
2018-08-19T14:27:24.773Z,97654.06
2018-08-19T14:29:53.274Z,97652.38
2018-08-19T14:32:31.578Z,97648.94
2018-08-19T14:35:01.731Z,97650.66
2018-08-19T14:37:30.233Z,97644.63
2018-08-19T14:39:59.541Z,97651.92
2018-08-19T14:42:28.002Z,97648.50
2018-08-19T14:44:57.620Z,97646.78
2018-08-19T14:47:26.472Z,97639.06
2018-08-19T14:49:55.460Z,97630.90
2018-08-19T14:52:23.923Z,97634.34
2018-08-19T14:54:52.379Z,97632.17
2018-08-19T14:57:20.870Z,97627.89
2018-08-19T14:59:49.334Z,97628.30
2018-08-19T15:02:17.829Z,97620.55
2018-08-19T15:04:47.483Z,97624.84
2018-08-19T15:07:15.996Z,97625.30
2018-08-19T15:09:50.098Z,97618.39
2018-08-19T15:12:23.591Z,97620.12
2018-08-19T15:14:52.610Z,97611.12
2018-08-19T15:17:21.262Z,97613.22
2018-08-19T15:19:51.709Z,97605.05
2018-08-19T15:22:20.426Z,97609.36
2018-08-19T15:24:49.151Z,97605.06
2018-08-19T15:27:17.611Z,97602.47
2018-08-19T15:29:48.197Z,97601.59
2018-08-19T15:32:16.762Z,97597.72
2018-08-19T15:34:45.327Z,97597.30
2018-08-19T15:37:13.790Z,97593.44
2018-08-19T15:39:42.278Z,97597.28
2018-08-19T15:42:10.778Z,97589.57
2018-08-19T15:44:39.272Z,97588.70
2018-08-19T15:47:28.167Z,97584.41
2018-08-19T15:50:09.601Z,97588.28
2018-08-19T15:52:38.157Z,97592.56
2018-08-19T15:55:06.748Z,97586.58
2018-08-19T15:57:35.264Z,97588.70
2018-08-19T16:00:03.775Z,97590.41
2018-08-19T16:02:32.256Z,97583.52
2018-08-19T16:05:02.787Z,97590.41
2018-08-19T16:07:31.293Z,97580.10
2018-08-19T16:09:59.799Z,97582.68
2018-08-19T16:12:29.918Z,97579.21
2018-08-19T16:14:58.397Z,97576.62
2018-08-19T16:17:26.891Z,97577.00
2018-08-19T16:19:55.391Z,97579.14
2018-08-19T16:22:23.880Z,97571.39
2018-08-19T16:24:52.359Z,97571.39
2018-08-19T16:27:20.834Z,97556.33
2018-08-19T16:29:49.321Z,97563.22
2018-08-19T16:32:17.843Z,97563.22
2018-08-19T16:34:46.320Z,97564.49
2018-08-19T16:37:14.836Z,97556.75
2018-08-19T16:39:43.324Z,97565.77
2018-08-19T16:42:11.798Z,97561.44
2018-08-19T16:44:40.327Z,97559.73
2018-08-19T16:47:08.789Z,97569.16
2018-08-19T16:49:37.269Z,97573.89
2018-08-19T16:52:05.759Z,97575.18
2018-08-19T16:54:34.252Z,97577.76
2018-08-19T16:57:02.752Z,97573.88
2018-08-19T16:59:31.232Z,97574.75
2018-08-19T17:01:59.709Z,97571.71
2018-08-19T17:04:28.180Z,97570.42
2018-08-19T17:06:56.670Z,97565.27
2018-08-19T17:09:25.163Z,97569.58
2018-08-19T17:11:53.629Z,97567.84
2018-08-19T17:14:22.110Z,97565.34
2018-08-19T17:16:50.635Z,97565.75
2018-08-19T17:19:19.097Z,97567.45
2018-08-19T17:21:47.642Z,97569.63
2018-08-19T17:24:16.122Z,97567.47
2018-08-19T17:26:44.690Z,97561.91
2018-08-19T17:29:19.509Z,97570.97
2018-08-19T17:31:48.116Z,97575.69
2018-08-19T17:34:19.986Z,97565.40
2018-08-19T17:36:48.624Z,97565.86
2018-08-19T17:39:20.654Z,97566.27
2018-08-19T17:41:50.219Z,97568.42
2018-08-19T17:44:18.700Z,97574.87
2018-08-19T17:46:47.188Z,97574.39
2018-08-19T17:49:19.798Z,97573.98
2018-08-19T17:51:48.266Z,97578.73
2018-08-19T17:54:22.051Z,97577.82
2018-08-19T17:56:51.013Z,97575.67
2018-08-19T17:59:19.591Z,97582.96
2018-08-19T18:01:48.012Z,97583.85
2018-08-19T18:04:16.527Z,97590.73
2018-08-19T18:06:44.993Z,97585.52
2018-08-19T18:09:14.963Z,97587.67
2018-08-19T18:11:49.298Z,97593.23
2018-08-19T18:14:17.830Z,97591.52
2018-08-19T18:16:46.379Z,97597.52
2018-08-19T18:19:14.858Z,97596.69
2018-08-19T18:21:43.322Z,97599.28
2018-08-19T18:24:11.830Z,97603.15
2018-08-19T18:26:40.299Z,97602.23
2018-08-19T18:29:08.767Z,97602.27
2018-08-19T18:31:37.238Z,97600.98
2018-08-19T18:34:08.590Z,97606.52
2018-08-19T18:36:37.260Z,97602.27
2018-08-19T18:39:09.411Z,97606.08
2018-08-19T18:41:39.244Z,97602.20
2018-08-19T18:44:09.154Z,97605.69
2018-08-19T18:46:37.839Z,97607.45
2018-08-19T18:49:13.110Z,97608.34
2018-08-19T18:51:43.306Z,97608.77
2018-08-19T18:54:31.629Z,97600.63
2018-08-19T18:57:06.108Z,97598.05
2018-08-19T18:59:34.626Z,97601.06
2018-08-19T19:02:04.188Z,97617.41
2018-08-19T19:04:32.683Z,97615.66
2018-08-19T19:07:01.149Z,97614.41
2018-08-19T19:09:37.774Z,97619.18
2018-08-19T19:12:06.281Z,97619.62
2018-08-19T19:14:34.754Z,97620.09
2018-08-19T19:17:03.260Z,97620.93
2018-08-19T19:19:36.737Z,97619.66
2018-08-19T19:22:05.279Z,97621.39
2018-08-19T19:24:37.814Z,97620.14
2018-08-19T19:27:06.654Z,97619.69
2018-08-19T19:29:35.155Z,97618.85
2018-08-19T19:32:13.855Z,97622.25
2018-08-19T19:34:42.327Z,97629.11
2018-08-19T19:37:11.038Z,97623.95
2018-08-19T19:39:39.561Z,97628.65
2018-08-19T19:42:11.092Z,97630.36
2018-08-19T19:44:39.571Z,97634.62
2018-08-19T19:47:09.370Z,97636.33
2018-08-19T19:49:46.688Z,97636.30
2018-08-19T19:52:15.194Z,97630.30
2018-08-19T19:54:43.670Z,97631.59
2018-08-19T19:57:12.236Z,97637.56
2018-08-19T19:59:40.750Z,97634.97
2018-08-19T20:02:16.522Z,97636.70
2018-08-19T20:04:45.415Z,97635.81
2018-08-19T20:07:13.946Z,97634.89
2018-08-19T20:09:42.465Z,97646.06
2018-08-19T20:12:16.021Z,97646.45
2018-08-19T20:14:49.299Z,97648.17
2018-08-19T20:17:18.778Z,97648.17
2018-08-19T20:19:47.254Z,97648.58
2018-08-19T20:22:17.675Z,97649.00
2018-08-19T20:24:46.487Z,97649.85
2018-08-19T20:27:15.282Z,97646.87
2018-08-19T20:29:43.765Z,97652.86
2018-08-19T20:32:12.261Z,97656.73
2018-08-19T20:34:40.759Z,97651.14
2018-08-19T20:37:09.316Z,97658.02
2018-08-19T20:39:37.893Z,97655.44
2018-08-19T20:42:06.853Z,97660.17
2018-08-19T20:44:37.305Z,97660.59
2018-08-19T20:47:07.819Z,97662.73
2018-08-19T20:49:36.347Z,97665.73
2018-08-19T20:52:04.943Z,97673.92
2018-08-19T20:54:33.503Z,97668.73
2018-08-19T20:57:02.067Z,97672.59
2018-08-19T20:59:35.200Z,97676.45
2018-08-19T21:02:04.489Z,97673.01
2018-08-19T21:04:33.029Z,97673.86
2018-08-19T21:07:03.027Z,97673.86
2018-08-19T21:09:32.439Z,97678.14
2018-08-19T21:12:01.018Z,97679.84
2018-08-19T21:14:29.901Z,97682.88
2018-08-19T21:16:58.917Z,97684.97
2018-08-19T21:19:27.455Z,97676.84
2018-08-19T21:21:56.081Z,97679.84
2018-08-19T21:24:24.596Z,97687.14
2018-08-19T21:26:57.265Z,97688.42
2018-08-19T21:29:25.786Z,97686.70
2018-08-19T21:31:54.397Z,97691.86
2018-08-19T21:34:22.917Z,97693.14
2018-08-19T21:36:51.446Z,97695.72
2018-08-19T21:39:20.059Z,97704.76
2018-08-19T21:41:50.331Z,97700.88
2018-08-19T21:45:47.972Z,97703.00
2018-08-19T21:48:17.164Z,97706.07
2018-08-19T21:50:45.658Z,97706.07
2018-08-19T21:53:16.378Z,97707.34
2018-08-19T21:55:46.168Z,97703.00
2018-08-19T21:58:14.688Z,97706.89
2018-08-19T22:00:45.588Z,97699.14
2018-08-19T22:03:20.375Z,97699.14
2018-08-19T22:05:52.072Z,97700.89
2018-08-19T22:08:22.377Z,97697.01
2018-08-19T22:10:50.851Z,97693.98
2018-08-19T22:13:19.358Z,97689.28
2018-08-19T22:15:48.255Z,97691.41
2018-08-19T22:18:22.189Z,97685.41
2018-08-19T22:21:08.378Z,97690.56
2018-08-19T22:23:50.505Z,97687.12
2018-08-19T22:26:19.999Z,97684.95
2018-08-19T22:29:02.574Z,97689.69
2018-08-19T22:31:31.114Z,97686.69
2018-08-19T22:33:59.620Z,97693.55
2018-08-19T22:36:28.134Z,97695.26
2018-08-19T22:38:57.671Z,97694.83
2018-08-19T22:41:29.848Z,97693.08
2018-08-19T22:43:59.078Z,97696.97
2018-08-19T22:46:28.217Z,97691.34
2018-08-19T22:48:57.398Z,97693.52
2018-08-19T22:51:29.011Z,97686.20
2018-08-19T22:53:57.505Z,97688.36
2018-08-19T22:56:26.022Z,97683.63
2018-08-19T22:58:54.531Z,97684.50
2018-08-19T23:01:23.151Z,97679.75
2018-08-19T23:03:58.517Z,97682.33
2018-08-19T23:06:27.789Z,97682.33
2018-08-19T23:08:56.306Z,97681.48
2018-08-19T23:11:32.530Z,97678.91
2018-08-19T23:14:12.514Z,97678.04
2018-08-19T23:16:41.084Z,97682.78
2018-08-19T23:19:09.630Z,97684.09
2018-08-19T23:21:38.245Z,97683.64
2018-08-19T23:24:06.754Z,97682.33
2018-08-19T23:26:35.275Z,97683.63
2018-08-19T23:29:03.807Z,97685.36
2018-08-19T23:31:32.378Z,97686.17
2018-08-19T23:34:00.873Z,97683.60
2018-08-19T23:36:29.366Z,97686.20
2018-08-19T23:38:57.896Z,97682.78
2018-08-19T23:41:26.407Z,97675.85
2018-08-19T23:43:54.988Z,97676.30
2018-08-19T23:46:23.510Z,97683.17
2018-08-19T23:48:52.218Z,97682.27
2018-08-19T23:51:24.854Z,97685.75
2018-08-19T23:53:53.370Z,97686.16
2018-08-19T23:56:21.852Z,97690.47
2018-08-19T23:58:51.407Z,97686.56
